[source: ADDS]
METAR
EDMA 191850Z 07005KT CAVOK 09/08 Q1008 RMK ATIS GOL =
TAF
TAF EDMA 191400Z 1915/1920 07010KT 9999 BKN025 =
SR / SS: 04:19 / 18:15 UTC (Referenz EDMA 2014-04-19)
Start Impressum Thomas Duckgeischel
Thomas Duckgeischel
Stellvertreter

Telefon: 07329 / 919200
Fax: 07322 / 931231